Mato Grosso, Brazil
Current Conditions -  °F | °C
As of 12:00 PM on Thursday 23 Oct 2014 (Local Time) from SLSI Reporting Station
Scattered Clouds Scattered Clouds  
Wind Chill: 91°   Ceiling: Unl
Heat Index: 102°   Visibility: 6mi
Dew Point: 75°   Wind: 12mph
Humidity: 59%   Direction: 360°N
Pressure: 29.94"   Gusts: NA
Location:  15.01°S, 59.94°W
Report Text: SLSI 231500Z 36010KT 9999 SCT020 33/24 Q1014
Loading
Personal Weather Stations






























Interactive Weather Map
Tropical Storm Tracking
New forecast layout! Learn more

10-Day Weather Forecast

Advertisements
Track Severe Weather on mobile